Overview Statistics Trail Chart Weather Telemetry Raw packets
 

This is the latest recevied weather packets stored in our database for station/object EA7URS-13. If no packets are shown the sender has not sent any weather packets the latest 10 day(s).

<< 88 89 90 91 92 93 94 >>
Time Temp. Humidity Pressure Rain* Wind** Luminosity Snow
1788008244 31.67° C 24% 1011.5 hPa 0 mm - 693 W/m² -
1788007943 31.67° C 24% 1011.5 hPa 0 mm - 693 W/m² -
1788007642 31.11° C 24% 1011.2 hPa 0 mm - 698 W/m² -
1788007341 31.11° C 24% 1011.2 hPa 0 mm - 698 W/m² -
1788007038 30.56° C 24% 1011.5 hPa 0 mm - 702 W/m² -
1788006736 30.56° C 24% 1011.5 hPa 0 mm - 702 W/m² -
1788006434 31.11° C 24% 1011.7 hPa 0 mm - 705 W/m² -
1788006133 31.11° C 24% 1011.7 hPa 0 mm - 705 W/m² -
1788005832 31.11° C 26% 1011.6 hPa 0 mm - 659 W/m² -
1788005531 31.11° C 26% 1011.6 hPa 0 mm - 659 W/m² -
1788005230 30.56° C 27% 1011.8 hPa 0 mm - 706 W/m² -
1788004928 30.56° C 27% 1011.8 hPa 0 mm - 706 W/m² -
1788004628 30.56° C 28% 1012 hPa 0 mm - 703 W/m² -
1788004327 30.56° C 28% 1012 hPa 0 mm - 703 W/m² -
1788004025 29.44° C 30% 1011.8 hPa 0 mm - 571 W/m² -
1788003724 29.44° C 30% 1011.8 hPa 0 mm - 571 W/m² -
1788003423 30° C 32% 1012.1 hPa 0 mm - 633 W/m² -
1788003122 30° C 32% 1012.1 hPa 0 mm - 633 W/m² -
1788002821 30° C 32% 1012.2 hPa 0 mm - 654 W/m² -
1788002520 30° C 32% 1012.2 hPa 0 mm - 654 W/m² -
1788002219 28.89° C 34% 1012.2 hPa 0 mm - 109 W/m² -
1788001918 28.89° C 34% 1012.2 hPa 0 mm - 109 W/m² -
1788001617 28.89° C 34% 1012.1 hPa 0 mm - 654 W/m² -
1788001316 28.89° C 34% 1012.1 hPa 0 mm - 654 W/m² -
1788001015 27.78° C 38% 1012.4 hPa 0 mm - 120 W/m² -

* Rain latest hour (hover to see other rain measurements)
** Current wind speed in m/s (hover to see current wind gust speed)